createdAt,value
2023-05-08T00:00:59.513Z,99163.06
2023-05-08T00:03:26.618Z,99174.13
2023-05-08T00:05:55.396Z,99169.41
2023-05-08T00:08:21.778Z,99165.00
2023-05-08T00:10:48.164Z,99169.63
2023-05-08T00:13:14.621Z,99164.63
2023-05-08T00:15:41.040Z,99169.47
2023-05-08T00:18:07.459Z,99166.94
2023-05-08T00:20:34.509Z,99169.22
2023-05-08T00:23:01.090Z,99162.03
2023-05-08T00:25:27.855Z,99170.66
2023-05-08T00:27:54.259Z,99168.88
2023-05-08T00:30:21.298Z,99167.19
2023-05-08T00:32:47.777Z,99169.91
2023-05-08T00:35:14.221Z,99170.09
2023-05-08T00:37:41.277Z,99166.69
2023-05-08T00:40:11.972Z,99162.69
2023-05-08T00:42:38.601Z,99163.34
2023-05-08T00:45:05.403Z,99154.75
2023-05-08T00:47:32.684Z,99159.91
2023-05-08T00:49:59.834Z,99161.66
2023-05-08T00:52:27.995Z,99157.91
2023-05-08T00:54:54.804Z,99151.63
2023-05-08T00:57:22.472Z,99154.00
2023-05-08T00:59:49.830Z,99162.69
2023-05-08T01:02:16.915Z,99151.91
2023-05-08T01:04:46.849Z,99160.22
2023-05-08T01:07:13.193Z,99162.47
2023-05-08T01:09:39.851Z,99165.75
2023-05-08T01:12:45.019Z,99162.66
2023-05-08T01:15:17.377Z,99162.78
2023-05-08T01:17:49.786Z,99164.41
2023-05-08T01:20:36.550Z,99158.38
2023-05-08T01:23:08.977Z,99154.97
2023-05-08T01:25:57.164Z,99157.22
2023-05-08T01:28:52.021Z,99163.06
2023-05-08T01:31:26.241Z,99160.53
2023-05-08T01:34:17.887Z,99156.47
2023-05-08T01:36:52.945Z,99162.59
2023-05-08T01:39:26.493Z,99160.97
2023-05-08T01:42:22.516Z,99166.28
2023-05-08T01:44:56.370Z,99161.72
2023-05-08T01:47:26.821Z,99161.44
2023-05-08T01:50:04.299Z,99163.66
2023-05-08T01:52:33.376Z,99169.13
2023-05-08T01:55:04.093Z,99172.78
2023-05-08T01:57:33.432Z,99172.81
2023-05-08T02:00:02.445Z,99171.09
2023-05-08T02:02:30.652Z,99171.53
2023-05-08T02:04:58.248Z,99180.22
2023-05-08T02:07:26.033Z,99173.84
2023-05-08T02:09:54.573Z,99171.84
2023-05-08T02:12:22.503Z,99171.09
2023-05-08T02:14:50.617Z,99166.75
2023-05-08T02:17:17.543Z,99172.88
2023-05-08T02:19:45.288Z,99169.94
2023-05-08T02:22:13.843Z,99179.56
2023-05-08T02:24:41.915Z,99173.78
2023-05-08T02:27:09.948Z,99177.41
2023-05-08T02:29:37.457Z,99176.09
2023-05-08T02:32:04.190Z,99174.09
2023-05-08T02:34:32.643Z,99176.78
2023-05-08T02:37:00.002Z,99177.06
2023-05-08T02:39:30.263Z,99174.66
2023-05-08T02:41:56.949Z,99177.22
2023-05-08T02:44:23.347Z,99179.00
2023-05-08T02:46:56.820Z,99175.13
2023-05-08T02:49:36.854Z,99182.47
2023-05-08T02:52:14.638Z,99176.38
2023-05-08T02:54:51.471Z,99183.50
2023-05-08T02:57:24.766Z,99188.06
2023-05-08T03:00:06.212Z,99180.41
2023-05-08T03:02:39.361Z,99191.41
2023-05-08T03:05:30.537Z,99192.16
2023-05-08T03:08:02.110Z,99199.25
2023-05-08T03:10:33.765Z,99194.94
2023-05-08T03:13:03.629Z,99192.06
2023-05-08T03:15:38.333Z,99196.75
2023-05-08T03:18:11.789Z,99192.56
2023-05-08T03:20:41.967Z,99200.16
2023-05-08T03:23:10.981Z,99194.13
2023-05-08T03:25:38.659Z,99190.22
2023-05-08T03:28:06.214Z,99188.72
2023-05-08T03:30:36.945Z,99193.44
2023-05-08T03:33:07.624Z,99195.81
2023-05-08T03:35:37.045Z,99188.53
2023-05-08T03:38:04.431Z,99185.75
2023-05-08T03:40:30.914Z,99190.44
2023-05-08T03:42:58.553Z,99183.31
2023-05-08T03:45:25.875Z,99188.91
2023-05-08T03:47:53.880Z,99193.50
2023-05-08T03:50:20.388Z,99194.44
2023-05-08T03:52:46.987Z,99194.50
2023-05-08T03:55:13.408Z,99198.97
2023-05-08T03:58:01.104Z,99191.09
2023-05-08T04:00:52.318Z,99197.44
2023-05-08T04:03:27.697Z,99202.44
2023-05-08T04:06:11.881Z,99190.59
2023-05-08T04:09:02.155Z,99203.50
2023-05-08T04:11:34.887Z,99204.25
2023-05-08T04:14:06.381Z,99213.00
2023-05-08T04:16:38.726Z,99211.94
2023-05-08T04:19:10.912Z,99215.16
2023-05-08T04:21:42.226Z,99208.47
2023-05-08T04:24:12.602Z,99211.53
2023-05-08T04:26:40.212Z,99214.72
2023-05-08T04:29:07.334Z,99217.22
2023-05-08T04:31:35.292Z,99212.47
2023-05-08T04:34:03.232Z,99203.44
2023-05-08T04:36:31.755Z,99214.78
2023-05-08T04:38:59.180Z,99224.34
2023-05-08T04:41:26.293Z,99226.06
2023-05-08T04:43:53.758Z,99219.94
2023-05-08T04:46:20.143Z,99222.19
2023-05-08T04:48:46.542Z,99226.94
2023-05-08T04:51:12.915Z,99235.69
2023-05-08T04:53:39.445Z,99244.94
2023-05-08T04:56:05.909Z,99240.81
2023-05-08T04:58:32.270Z,99246.94
2023-05-08T05:01:02.222Z,99248.31
2023-05-08T05:03:28.621Z,99248.16
2023-05-08T05:05:59.386Z,99251.72
2023-05-08T05:08:25.936Z,99256.09
2023-05-08T05:10:52.657Z,99254.31
2023-05-08T05:13:19.873Z,99246.31
2023-05-08T05:15:46.552Z,99258.56
2023-05-08T05:18:13.175Z,99248.19
2023-05-08T05:20:39.643Z,99243.03
2023-05-08T05:23:06.019Z,99247.59
2023-05-08T05:25:32.410Z,99248.38
2023-05-08T05:27:58.746Z,99255.06
2023-05-08T05:30:25.106Z,99252.41
2023-05-08T05:32:51.492Z,99258.91
2023-05-08T05:35:17.969Z,99249.78
2023-05-08T05:37:44.363Z,99261.63
2023-05-08T05:40:13.262Z,99254.13
2023-05-08T05:42:39.624Z,99263.78
2023-05-08T05:45:06.636Z,99267.47
2023-05-08T05:47:33.041Z,99259.84
2023-05-08T05:49:59.467Z,99263.88
2023-05-08T05:52:25.861Z,99266.41
2023-05-08T05:54:52.224Z,99257.69
2023-05-08T05:57:18.649Z,99255.34
2023-05-08T05:59:45.163Z,99255.66
2023-05-08T06:02:18.345Z,99265.19
2023-05-08T06:04:44.989Z,99261.25
2023-05-08T06:07:11.373Z,99267.50
2023-05-08T06:09:37.729Z,99256.41
2023-05-08T06:12:04.070Z,99260.59
2023-05-08T06:14:30.452Z,99264.06
2023-05-08T06:16:56.900Z,99266.38
2023-05-08T06:19:24.540Z,99260.25
2023-05-08T06:21:51.512Z,99270.47
2023-05-08T06:24:17.901Z,99258.31
2023-05-08T06:26:44.251Z,99259.31
2023-05-08T06:29:10.610Z,99255.56
2023-05-08T06:31:37.027Z,99264.16
2023-05-08T06:34:03.828Z,99263.28
2023-05-08T06:36:30.722Z,99262.75
2023-05-08T06:38:57.440Z,99261.56
2023-05-08T06:41:23.820Z,99256.44
2023-05-08T06:43:50.288Z,99258.63
2023-05-08T06:46:16.688Z,99260.03
2023-05-08T06:48:43.044Z,99263.16
2023-05-08T06:51:09.437Z,99267.09
2023-05-08T06:53:35.790Z,99264.59
2023-05-08T06:56:02.171Z,99263.63
2023-05-08T06:58:28.537Z,99259.81
2023-05-08T07:00:54.937Z,99260.03
2023-05-08T07:03:21.542Z,99263.66
2023-05-08T07:05:47.943Z,99256.47
2023-05-08T07:08:14.343Z,99260.63
2023-05-08T07:10:40.848Z,99252.09
2023-05-08T07:13:07.332Z,99251.84
2023-05-08T07:15:33.871Z,99253.56
2023-05-08T07:18:00.613Z,99245.19
2023-05-08T07:20:27.213Z,99255.69
2023-05-08T07:22:53.649Z,99251.63
2023-05-08T07:25:20.010Z,99264.63
2023-05-08T07:27:46.491Z,99262.66
2023-05-08T07:30:13.122Z,99253.88
2023-05-08T07:32:39.853Z,99253.16
2023-05-08T07:35:10.436Z,99254.63
2023-05-08T07:37:37.586Z,99263.59
2023-05-08T07:40:04.232Z,99255.06
2023-05-08T07:42:30.634Z,99257.06
2023-05-08T07:44:56.987Z,99249.94
2023-05-08T07:47:23.404Z,99255.31
2023-05-08T07:49:49.813Z,99259.59
2023-05-08T07:52:16.663Z,99264.63
2023-05-08T07:54:43.727Z,99263.22
2023-05-08T07:57:10.113Z,99259.19
2023-05-08T07:59:36.468Z,99269.94
2023-05-08T08:02:02.924Z,99256.84
2023-05-08T08:04:29.333Z,99248.22
2023-05-08T08:06:55.784Z,99260.44
2023-05-08T08:09:22.113Z,99257.81
2023-05-08T08:11:48.476Z,99253.09
2023-05-08T08:14:14.815Z,99249.00
2023-05-08T08:16:42.563Z,99250.16
2023-05-08T08:19:09.102Z,99249.03
2023-05-08T08:21:35.725Z,99257.88
2023-05-08T08:24:02.090Z,99250.84
2023-05-08T08:26:28.445Z,99256.00
2023-05-08T08:28:54.822Z,99254.09
2023-05-08T08:31:21.208Z,99260.88
2023-05-08T08:33:47.603Z,99250.34
2023-05-08T08:36:14.836Z,99257.59
2023-05-08T08:38:41.582Z,99253.03
2023-05-08T08:41:08.394Z,99243.97
2023-05-08T08:43:35.022Z,99242.25
2023-05-08T08:46:11.679Z,99242.03
2023-05-08T08:48:41.510Z,99248.31
2023-05-08T08:51:13.656Z,99258.28
2023-05-08T08:53:45.904Z,99241.88
2023-05-08T08:56:14.093Z,99250.44
2023-05-08T08:58:50.938Z,99261.09
2023-05-08T09:01:20.514Z,99241.97
2023-05-08T09:03:48.376Z,99249.00
2023-05-08T09:06:17.200Z,99254.47
2023-05-08T09:08:43.837Z,99247.28
2023-05-08T09:11:10.232Z,99247.22
2023-05-08T09:13:36.713Z,99253.34
2023-05-08T09:16:04.085Z,99243.41
2023-05-08T09:18:30.717Z,99239.75
2023-05-08T09:20:57.387Z,99238.25
2023-05-08T09:23:23.858Z,99246.09
2023-05-08T09:25:53.813Z,99240.69
2023-05-08T09:28:22.270Z,99232.69
2023-05-08T09:30:50.083Z,99238.59
2023-05-08T09:33:17.149Z,99237.84
2023-05-08T09:35:43.542Z,99233.66
2023-05-08T09:38:09.927Z,99216.41
2023-05-08T09:40:36.397Z,99232.25
2023-05-08T09:43:15.997Z,99221.59
2023-05-08T09:45:42.712Z,99219.84
2023-05-08T09:48:10.918Z,99225.00
2023-05-08T09:50:37.665Z,99223.19
2023-05-08T09:53:04.142Z,99210.97
2023-05-08T09:55:46.384Z,99217.06
2023-05-08T09:58:12.723Z,99206.19
2023-05-08T10:00:39.850Z,99214.81
2023-05-08T10:03:06.239Z,99218.50
2023-05-08T10:05:35.606Z,99215.28
2023-05-08T10:08:19.011Z,99205.44
2023-05-08T10:10:45.463Z,99220.44
2023-05-08T10:13:11.890Z,99216.00
2023-05-08T10:15:42.073Z,99235.00
2023-05-08T10:18:09.494Z,99227.06
2023-05-08T10:20:39.522Z,99220.75
2023-05-08T10:23:11.939Z,99206.59
2023-05-08T10:25:45.055Z,99214.69
2023-05-08T10:28:43.158Z,99207.78
2023-05-08T10:31:12.343Z,99211.16
2023-05-08T10:33:40.792Z,99215.09
2023-05-08T10:36:09.640Z,99203.34
2023-05-08T10:38:37.489Z,99201.63
2023-05-08T10:41:04.282Z,99195.28
2023-05-08T10:43:33.561Z,99192.91
2023-05-08T10:46:08.308Z,99190.44
2023-05-08T10:49:05.226Z,99201.44
2023-05-08T10:51:46.706Z,99179.38
2023-05-08T10:54:21.923Z,99190.19
2023-05-08T10:56:49.002Z,99187.53
2023-05-08T10:59:19.783Z,99188.19
2023-05-08T11:01:49.831Z,99182.66
2023-05-08T11:04:21.689Z,99180.09
2023-05-08T11:06:52.771Z,99186.78
2023-05-08T11:09:26.970Z,99180.91
2023-05-08T11:12:30.553Z,99176.63
2023-05-08T11:15:06.497Z,99183.78
2023-05-08T11:17:34.077Z,99192.38
2023-05-08T11:20:03.223Z,99165.06
2023-05-08T11:22:31.390Z,99183.91
2023-05-08T11:25:09.724Z,99177.31
2023-05-08T11:28:04.569Z,99177.72
2023-05-08T11:30:30.949Z,99184.63
2023-05-08T11:32:59.586Z,99167.94
2023-05-08T11:35:43.650Z,99169.91
2023-05-08T11:38:21.951Z,99176.56
2023-05-08T11:41:05.071Z,99171.97
2023-05-08T11:43:44.821Z,99172.47
2023-05-08T11:46:16.952Z,99163.88
2023-05-08T11:48:44.059Z,99165.06
2023-05-08T11:51:10.799Z,99160.31
2023-05-08T11:53:38.141Z,99166.88
2023-05-08T11:56:04.933Z,99159.13
2023-05-08T11:58:31.341Z,99165.44
2023-05-08T12:00:57.964Z,99155.78
2023-05-08T12:03:25.464Z,99159.13
2023-05-08T12:05:56.524Z,99161.75
2023-05-08T12:08:23.559Z,99154.25
2023-05-08T12:10:54.349Z,99153.06
2023-05-08T12:13:22.079Z,99161.13
2023-05-08T12:15:50.865Z,99166.19
2023-05-08T12:18:17.458Z,99152.31
2023-05-08T12:20:45.944Z,99159.63
2023-05-08T12:23:12.697Z,99157.00
2023-05-08T12:25:40.042Z,99150.41
2023-05-08T12:28:10.111Z,99155.19
2023-05-08T12:30:37.170Z,99153.03
2023-05-08T12:33:06.713Z,99142.53
2023-05-08T12:35:33.700Z,99145.41
2023-05-08T12:38:05.495Z,99146.75
2023-05-08T12:40:40.466Z,99132.09
2023-05-08T12:43:06.868Z,99133.84
2023-05-08T12:45:35.746Z,99138.03
2023-05-08T12:48:04.900Z,99132.75
2023-05-08T12:50:38.673Z,99136.59
2023-05-08T12:53:06.853Z,99152.47
2023-05-08T12:55:35.258Z,99132.78
2023-05-08T12:58:06.819Z,99134.06
2023-05-08T13:00:51.864Z,99134.84
2023-05-08T13:03:26.768Z,99126.69
2023-05-08T13:05:56.072Z,99134.16
2023-05-08T13:08:38.784Z,99120.72
2023-05-08T13:11:06.594Z,99139.78
2023-05-08T13:13:35.191Z,99126.94
2023-05-08T13:16:06.553Z,99120.84
2023-05-08T13:18:33.604Z,99124.50
2023-05-08T13:21:02.013Z,99115.69
2023-05-08T13:23:28.563Z,99132.44
2023-05-08T13:25:55.800Z,99121.66
2023-05-08T13:28:22.194Z,99118.59
2023-05-08T13:30:48.547Z,99119.88
2023-05-08T13:33:14.958Z,99116.53
2023-05-08T13:35:41.328Z,99117.94
2023-05-08T13:38:07.746Z,99120.72
2023-05-08T13:40:34.179Z,99114.19
2023-05-08T13:43:00.658Z,99122.75
2023-05-08T13:45:27.073Z,99114.94
2023-05-08T13:47:54.252Z,99102.94
2023-05-08T13:50:21.773Z,99107.13
2023-05-08T13:52:48.985Z,99111.22
2023-05-08T13:55:15.959Z,99109.31
2023-05-08T13:57:42.840Z,99109.84
2023-05-08T14:00:10.201Z,99102.09
2023-05-08T14:02:37.379Z,99095.34
2023-05-08T14:05:05.350Z,99096.81
2023-05-08T14:07:31.925Z,99091.84
2023-05-08T14:09:58.369Z,99101.69
2023-05-08T14:12:24.726Z,99090.69
2023-05-08T14:14:51.129Z,99099.06
2023-05-08T14:17:17.558Z,99103.84
2023-05-08T14:19:44.120Z,99095.75
2023-05-08T14:22:10.509Z,99104.78
2023-05-08T14:24:36.938Z,99100.06
2023-05-08T14:27:05.916Z,99095.81
2023-05-08T14:29:33.796Z,99093.28
2023-05-08T14:32:00.442Z,99084.19
2023-05-08T14:34:26.913Z,99098.47
2023-05-08T14:36:53.394Z,99086.41
2023-05-08T14:39:20.112Z,99082.56
2023-05-08T14:42:05.177Z,99082.59
2023-05-08T14:44:32.901Z,99090.81
2023-05-08T14:46:59.316Z,99079.75
2023-05-08T14:49:36.799Z,99083.28
2023-05-08T14:52:04.658Z,99087.28
2023-05-08T14:54:31.622Z,99083.38
2023-05-08T14:56:58.144Z,99080.94
2023-05-08T14:59:24.523Z,99076.78
2023-05-08T15:01:51.087Z,99084.44
2023-05-08T15:04:17.760Z,99082.31
2023-05-08T15:06:44.348Z,99080.41
2023-05-08T15:09:10.835Z,99079.81
2023-05-08T15:11:37.247Z,99072.06
2023-05-08T15:14:04.934Z,99068.41
2023-05-08T15:16:31.425Z,99069.09
2023-05-08T15:18:57.803Z,99066.41
2023-05-08T15:21:26.613Z,99075.50
2023-05-08T15:23:54.112Z,99068.25
2023-05-08T15:26:20.931Z,99067.19
2023-05-08T15:28:47.522Z,99071.88
2023-05-08T15:31:14.056Z,99073.72
2023-05-08T15:33:44.654Z,99063.75
2023-05-08T15:36:14.272Z,99066.59
2023-05-08T15:38:41.181Z,99064.00
2023-05-08T15:41:07.866Z,99061.09
2023-05-08T15:43:34.206Z,99060.81
2023-05-08T15:46:00.680Z,99070.13
2023-05-08T15:48:27.095Z,99058.41
2023-05-08T15:50:53.524Z,99058.66
2023-05-08T15:53:19.884Z,99056.75
2023-05-08T15:55:46.253Z,99059.72
2023-05-08T15:58:12.615Z,99055.41
2023-05-08T16:00:44.619Z,99061.09
2023-05-08T16:03:11.940Z,99052.75
2023-05-08T16:05:39.471Z,99049.44
2023-05-08T16:08:06.071Z,99052.84
2023-05-08T16:10:32.399Z,99049.44
2023-05-08T16:12:58.853Z,99047.72
2023-05-08T16:15:25.411Z,99045.88
2023-05-08T16:17:51.802Z,99040.34
2023-05-08T16:20:18.169Z,99040.91
2023-05-08T16:22:44.577Z,99043.69
2023-05-08T16:25:11.086Z,99036.44
2023-05-08T16:27:37.650Z,99047.88
2023-05-08T16:30:04.417Z,99056.00
2023-05-08T16:32:30.837Z,99035.75
2023-05-08T16:34:57.270Z,99042.28
2023-05-08T16:37:23.648Z,99036.09
2023-05-08T16:39:49.993Z,99040.53
2023-05-08T16:42:18.635Z,99043.41
2023-05-08T16:44:45.179Z,99044.47
2023-05-08T16:47:11.571Z,99044.16
2023-05-08T16:49:37.958Z,99041.97
2023-05-08T16:52:04.468Z,99047.44
2023-05-08T16:54:30.830Z,99043.06
2023-05-08T16:56:57.200Z,99052.09
2023-05-08T16:59:23.570Z,99054.19
2023-05-08T17:01:49.999Z,99048.81
2023-05-08T17:04:16.375Z,99053.84
2023-05-08T17:06:42.729Z,99044.25
2023-05-08T17:09:09.107Z,99051.13
2023-05-08T17:11:35.442Z,99048.69
2023-05-08T17:14:01.849Z,99049.59
2023-05-08T17:16:28.393Z,99049.81
2023-05-08T17:18:54.823Z,99049.91
2023-05-08T17:21:21.286Z,99059.72
2023-05-08T17:23:48.039Z,99059.09
2023-05-08T17:26:14.419Z,99045.16
2023-05-08T17:28:41.090Z,99057.66
2023-05-08T17:31:07.498Z,99046.75
2023-05-08T17:33:33.872Z,99051.22
2023-05-08T17:36:01.261Z,99060.25
2023-05-08T17:38:28.025Z,99058.78
2023-05-08T17:40:54.432Z,99059.69
2023-05-08T17:43:20.967Z,99061.66
2023-05-08T17:45:47.438Z,99060.84
2023-05-08T17:48:14.156Z,99064.19
2023-05-08T17:50:42.181Z,99067.31
2023-05-08T17:53:08.511Z,99070.19
2023-05-08T17:55:34.992Z,99077.41
2023-05-08T17:58:01.420Z,99068.75
2023-05-08T18:00:27.780Z,99079.47
2023-05-08T18:02:54.328Z,99077.28
2023-05-08T18:05:20.843Z,99080.41
2023-05-08T18:07:47.194Z,99085.75
2023-05-08T18:10:13.800Z,99089.53
2023-05-08T18:12:40.480Z,99090.38
2023-05-08T18:15:07.932Z,99091.66
2023-05-08T18:17:34.309Z,99097.50
2023-05-08T18:20:04.009Z,99096.50
2023-05-08T18:22:31.044Z,99095.34
2023-05-08T18:24:57.652Z,99106.00
2023-05-08T18:27:24.347Z,99102.88
2023-05-08T18:29:50.700Z,99100.88
2023-05-08T18:32:17.110Z,99096.91
2023-05-08T18:34:43.572Z,99095.63
2023-05-08T18:37:10.000Z,99096.91
2023-05-08T18:39:37.653Z,99102.44
2023-05-08T18:42:04.019Z,99098.50
2023-05-08T18:44:30.703Z,99107.03
2023-05-08T18:46:57.080Z,99101.84
2023-05-08T18:49:23.531Z,99105.75
2023-05-08T18:51:49.896Z,99110.09
2023-05-08T18:54:16.630Z,99110.56
2023-05-08T18:56:42.975Z,99117.84
2023-05-08T18:59:09.327Z,99113.75
2023-05-08T19:01:35.885Z,99113.75
2023-05-08T19:04:04.150Z,99118.50
2023-05-08T19:06:31.300Z,99116.81
2023-05-08T19:08:57.663Z,99112.03
2023-05-08T19:11:24.087Z,99122.13
2023-05-08T19:13:51.795Z,99123.56
2023-05-08T19:16:18.272Z,99126.00
2023-05-08T19:18:44.624Z,99120.28
2023-05-08T19:21:10.978Z,99125.03
2023-05-08T19:23:37.656Z,99130.31
2023-05-08T19:26:04.022Z,99124.56
2023-05-08T19:28:30.357Z,99125.59
2023-05-08T19:30:56.742Z,99124.84
2023-05-08T19:33:23.111Z,99128.66
2023-05-08T19:35:49.671Z,99129.69
2023-05-08T19:38:16.189Z,99127.66
2023-05-08T19:40:55.439Z,99117.91
2023-05-08T19:43:23.284Z,99123.72
2023-05-08T19:45:49.693Z,99129.19
2023-05-08T19:48:18.012Z,99119.34
2023-05-08T19:50:44.707Z,99127.28
2023-05-08T19:53:11.151Z,99132.75
2023-05-08T19:55:37.495Z,99126.16
2023-05-08T19:58:03.864Z,99131.63
2023-05-08T20:00:30.233Z,99130.88
2023-05-08T20:02:56.692Z,99128.00
2023-05-08T20:05:23.473Z,99129.81
2023-05-08T20:07:50.035Z,99125.03
2023-05-08T20:10:16.630Z,99128.69
2023-05-08T20:12:43.356Z,99131.53
2023-05-08T20:15:10.451Z,99125.59
2023-05-08T20:17:36.858Z,99118.91
2023-05-08T20:20:03.459Z,99126.47
2023-05-08T20:22:29.863Z,99124.53
2023-05-08T20:24:56.219Z,99128.72
2023-05-08T20:27:22.564Z,99126.63
2023-05-08T20:29:48.893Z,99115.25
2023-05-08T20:32:16.403Z,99118.50
2023-05-08T20:34:44.123Z,99127.63
2023-05-08T20:37:10.574Z,99122.84
2023-05-08T20:39:36.956Z,99124.94
2023-05-08T20:42:03.371Z,99124.81
2023-05-08T20:44:29.758Z,99122.44
2023-05-08T20:46:56.147Z,99123.41
2023-05-08T20:49:22.549Z,99121.44
2023-05-08T20:51:48.920Z,99125.19
2023-05-08T20:54:15.342Z,99115.84
2023-05-08T20:56:41.723Z,99121.63
2023-05-08T20:59:08.334Z,99118.94
2023-05-08T21:01:34.824Z,99121.34
2023-05-08T21:04:01.266Z,99120.56
2023-05-08T21:06:27.662Z,99118.72
2023-05-08T21:08:54.077Z,99121.09
2023-05-08T21:11:21.071Z,99128.00
2023-05-08T21:13:47.453Z,99120.09
2023-05-08T21:16:13.820Z,99122.66
2023-05-08T21:18:40.460Z,99115.94
2023-05-08T21:21:14.886Z,99116.84
2023-05-08T21:23:41.247Z,99109.84
2023-05-08T21:26:07.585Z,99115.38
2023-05-08T21:28:34.277Z,99127.94
2023-05-08T21:31:00.876Z,99125.09
2023-05-08T21:33:27.428Z,99123.63
2023-05-08T21:35:53.811Z,99112.41
2023-05-08T21:38:20.188Z,99106.88
2023-05-08T21:40:46.538Z,99114.06
2023-05-08T21:43:12.912Z,99114.06
2023-05-08T21:45:39.261Z,99105.53
2023-05-08T21:48:05.935Z,99107.94
2023-05-08T21:50:32.314Z,99103.00
2023-05-08T21:52:58.729Z,99102.41
2023-05-08T21:55:25.132Z,99093.31
2023-05-08T21:57:52.020Z,99099.59
2023-05-08T22:00:18.970Z,99104.84
2023-05-08T22:02:45.474Z,99103.34
2023-05-08T22:05:12.124Z,99100.91
2023-05-08T22:07:38.672Z,99102.88
2023-05-08T22:10:05.708Z,99099.69
2023-05-08T22:12:32.042Z,99097.78
2023-05-08T22:14:58.407Z,99095.81
2023-05-08T22:17:24.861Z,99103.41
2023-05-08T22:19:51.246Z,99112.47
2023-05-08T22:22:17.593Z,99106.94
2023-05-08T22:24:43.985Z,99108.91
2023-05-08T22:27:10.397Z,99098.50
2023-05-08T22:29:36.757Z,99110.53
2023-05-08T22:32:03.374Z,99094.75
2023-05-08T22:34:29.791Z,99096.25
2023-05-08T22:36:56.189Z,99093.72
2023-05-08T22:39:22.534Z,99098.59
2023-05-08T22:41:48.922Z,99099.34
2023-05-08T22:44:15.341Z,99099.19
2023-05-08T22:46:41.832Z,99097.88
2023-05-08T22:49:09.204Z,99083.59
2023-05-08T22:51:36.069Z,99093.38
2023-05-08T22:54:02.536Z,99096.38
2023-05-08T22:56:28.867Z,99094.78
2023-05-08T22:58:55.219Z,99096.59
2023-05-08T23:01:22.346Z,99096.69
2023-05-08T23:03:52.196Z,99092.91
2023-05-08T23:06:18.566Z,99103.63
2023-05-08T23:08:44.978Z,99100.06
2023-05-08T23:11:11.373Z,99102.94
2023-05-08T23:13:37.768Z,99100.63
2023-05-08T23:16:04.607Z,99098.09
2023-05-08T23:18:31.067Z,99093.66
2023-05-08T23:20:57.405Z,99095.06
2023-05-08T23:23:23.850Z,99098.47
2023-05-08T23:25:50.236Z,99096.34
2023-05-08T23:28:16.591Z,99102.34
2023-05-08T23:30:42.960Z,99092.03
2023-05-08T23:33:09.361Z,99095.44
2023-05-08T23:35:35.767Z,99100.97
2023-05-08T23:38:02.095Z,99094.50
2023-05-08T23:40:28.527Z,99100.56
2023-05-08T23:42:54.898Z,99091.97
2023-05-08T23:45:21.265Z,99087.69
2023-05-08T23:47:47.636Z,99083.88
2023-05-08T23:50:14.009Z,99073.56
2023-05-08T23:52:41.248Z,99075.66
2023-05-08T23:55:08.144Z,99074.13
2023-05-08T23:57:34.569Z,99078.41
